createdAt,value
2022-08-09T00:01:01.575Z,0.00
2022-08-09T00:03:01.708Z,0.00
2022-08-09T00:06:19.696Z,0.00
2022-08-09T00:08:09.680Z,0.00
2022-08-09T00:10:07.191Z,0.00
2022-08-09T00:12:07.300Z,0.00
2022-08-09T00:14:07.410Z,0.00
2022-08-09T00:16:07.508Z,0.00
2022-08-09T00:18:11.651Z,0.00
2022-08-09T00:20:07.763Z,0.00
2022-08-09T00:22:07.830Z,0.00
2022-08-09T00:24:07.999Z,0.00
2022-08-09T00:26:08.046Z,0.00
2022-08-09T00:28:08.130Z,0.00
2022-08-09T00:30:17.986Z,0.00
2022-08-09T00:32:12.697Z,0.00
2022-08-09T00:34:08.527Z,0.00
2022-08-09T00:36:08.612Z,0.00
2022-08-09T00:38:08.839Z,0.00
2022-08-09T00:40:16.868Z,0.00
2022-08-09T00:44:11.784Z,0.00
2022-08-09T00:44:24.500Z,0.00
2022-08-09T00:46:10.185Z,0.00
2022-08-09T00:48:09.293Z,0.00
2022-08-09T00:50:14.286Z,0.00
2022-08-09T00:52:17.475Z,0.00
2022-08-09T00:54:10.579Z,0.00
2022-08-09T00:56:10.125Z,0.00
2022-08-09T00:58:09.774Z,0.00
2022-08-09T01:00:21.310Z,0.00
2022-08-09T01:02:11.095Z,0.00
2022-08-09T01:04:10.173Z,0.00
2022-08-09T01:06:17.417Z,0.00
2022-08-09T01:08:11.377Z,0.00
2022-08-09T01:10:10.553Z,0.00
2022-08-09T01:12:12.814Z,0.00
2022-08-09T01:14:11.800Z,0.00
2022-08-09T01:16:10.906Z,0.00
2022-08-09T01:18:14.301Z,0.00
2022-08-09T01:20:11.103Z,0.00
2022-08-09T01:22:12.370Z,0.00
2022-08-09T01:24:12.347Z,0.00
2022-08-09T01:26:11.475Z,0.00
2022-08-09T01:28:11.590Z,0.00
2022-08-09T01:30:33.754Z,0.00
2022-08-09T01:32:32.698Z,0.00
2022-08-09T01:34:12.878Z,0.00
2022-08-09T01:36:12.029Z,0.00
2022-08-09T01:38:15.070Z,0.00
2022-08-09T01:40:12.233Z,0.00
2022-08-09T01:42:13.330Z,0.00
2022-08-09T01:44:12.477Z,0.00
2022-08-09T01:46:12.563Z,0.00
2022-08-09T01:48:15.535Z,0.00
2022-08-09T01:50:12.838Z,0.00
2022-08-09T01:52:14.542Z,0.00
2022-08-09T01:54:13.014Z,0.00
2022-08-09T01:56:13.086Z,0.00
2022-08-09T01:58:13.193Z,0.00
2022-08-09T02:00:34.554Z,0.00
2022-08-09T02:02:14.438Z,0.00
2022-08-09T02:04:13.561Z,0.00
2022-08-09T02:06:13.658Z,0.00
2022-08-09T02:08:40.559Z,0.00
2022-08-09T02:10:14.953Z,0.00
2022-08-09T02:12:18.168Z,0.00
2022-08-09T02:14:25.053Z,0.00
2022-08-09T02:16:15.217Z,0.00
2022-08-09T02:18:14.359Z,0.00
2022-08-09T02:20:15.903Z,0.00
2022-08-09T02:22:15.593Z,0.00
2022-08-09T02:24:25.732Z,0.00
2022-08-09T02:26:24.914Z,0.00
2022-08-09T02:28:17.905Z,0.00
2022-08-09T02:30:15.571Z,0.00
2022-08-09T02:32:15.218Z,0.00
2022-08-09T02:34:40.891Z,0.00
2022-08-09T02:36:16.414Z,0.00
2022-08-09T02:38:22.089Z,0.00
2022-08-09T02:40:18.564Z,0.00
2022-08-09T02:42:17.234Z,0.00
2022-08-09T02:44:29.026Z,0.00
2022-08-09T02:46:16.998Z,0.00
2022-08-09T02:48:29.787Z,0.00
2022-08-09T02:50:17.268Z,0.00
2022-08-09T02:52:16.379Z,0.00
2022-08-09T02:54:16.532Z,0.00
2022-08-09T02:56:16.612Z,0.00
2022-08-09T02:58:36.111Z,0.00
2022-08-09T03:00:24.802Z,0.00
2022-08-09T03:02:17.997Z,0.00
2022-08-09T03:04:19.833Z,0.00
2022-08-09T03:06:17.280Z,0.00
2022-08-09T03:08:17.289Z,0.00
2022-08-09T03:10:17.422Z,0.00
2022-08-09T03:12:17.473Z,0.00
2022-08-09T03:14:17.594Z,0.00
2022-08-09T03:16:17.664Z,0.00
2022-08-09T03:18:19.115Z,0.00
2022-08-09T03:20:18.943Z,0.00
2022-08-09T03:22:25.188Z,0.00
2022-08-09T03:24:42.428Z,0.00
2022-08-09T03:26:19.308Z,0.00
2022-08-09T03:28:18.407Z,0.00
2022-08-09T03:30:33.179Z,0.00
2022-08-09T03:32:19.605Z,0.00
2022-08-09T03:34:18.770Z,0.00
2022-08-09T03:37:56.026Z,0.00
2022-08-09T03:39:37.540Z,0.00
2022-08-09T03:41:44.952Z,0.00
2022-08-09T03:43:36.701Z,0.00
2022-08-09T03:46:04.404Z,0.00
2022-08-09T03:47:42.029Z,4.00
2022-08-09T03:49:37.070Z,4.00
2022-08-09T03:51:55.695Z,4.00
2022-08-09T03:53:37.791Z,8.00
2022-08-09T03:55:40.912Z,8.00
2022-08-09T03:57:53.401Z,12.00
2022-08-09T03:59:53.693Z,12.00
2022-08-09T04:01:40.989Z,16.00
2022-08-09T04:04:01.390Z,24.00
2022-08-09T04:05:40.420Z,28.00
2022-08-09T04:07:53.050Z,36.00
2022-08-09T04:09:47.429Z,44.00
2022-08-09T04:11:38.509Z,52.00
2022-08-09T04:14:36.751Z,60.00
2022-08-09T04:16:55.185Z,76.00
2022-08-09T04:18:55.297Z,88.00
2022-08-09T04:20:55.471Z,100.00
2022-08-09T04:22:55.598Z,116.00
2022-08-09T04:24:55.690Z,128.00
2022-08-09T04:26:56.014Z,140.00
2022-08-09T04:28:59.717Z,152.00
2022-08-09T04:30:57.182Z,164.00
2022-08-09T04:32:56.348Z,180.00
2022-08-09T04:34:57.480Z,196.00
2022-08-09T04:36:56.611Z,208.00
2022-08-09T04:38:56.710Z,224.00
2022-08-09T04:40:57.238Z,236.00
2022-08-09T04:42:57.097Z,252.00
2022-08-09T04:44:57.186Z,264.00
2022-08-09T04:47:04.619Z,276.00
2022-08-09T04:48:58.582Z,292.00
2022-08-09T04:50:57.751Z,304.00
2022-08-09T04:52:57.731Z,320.00
2022-08-09T04:54:57.874Z,328.00
2022-08-09T04:56:58.006Z,344.00
2022-08-09T04:58:58.114Z,356.00
2022-08-09T05:00:58.317Z,368.00
2022-08-09T05:02:58.519Z,384.00
2022-08-09T05:05:09.702Z,396.00
2022-08-09T05:06:59.721Z,412.00
2022-08-09T05:09:00.031Z,428.00
2022-08-09T05:10:59.009Z,440.00
2022-08-09T05:12:59.164Z,452.00
2022-08-09T05:14:59.270Z,468.00
2022-08-09T05:16:59.744Z,480.00
2022-08-09T05:19:00.506Z,496.00
2022-08-09T05:20:59.649Z,508.00
2022-08-09T05:23:53.935Z,520.00
2022-08-09T05:25:02.529Z,532.00
2022-08-09T05:27:00.068Z,544.00
2022-08-09T05:29:00.230Z,556.00
2022-08-09T05:31:00.356Z,564.00
2022-08-09T05:33:01.967Z,580.00
2022-08-09T05:35:00.648Z,584.00
2022-08-09T05:37:01.779Z,596.00
2022-08-09T05:39:00.941Z,608.00
2022-08-09T05:41:01.079Z,616.00
2022-08-09T05:43:01.291Z,624.00
2022-08-09T05:45:01.374Z,636.00
2022-08-09T05:47:01.485Z,648.00
2022-08-09T05:49:13.633Z,656.00
2022-08-09T05:51:42.289Z,668.00
2022-08-09T05:53:02.918Z,676.00
2022-08-09T05:55:03.265Z,688.00
2022-08-09T05:57:03.189Z,696.00
2022-08-09T05:59:02.296Z,704.00
2022-08-09T06:01:04.459Z,720.00
2022-08-09T06:03:02.687Z,728.00
2022-08-09T06:05:02.699Z,736.00
2022-08-09T06:07:02.845Z,748.00
2022-08-09T06:09:02.998Z,760.00
2022-08-09T06:11:17.282Z,772.00
2022-08-09T06:13:12.102Z,788.00
2022-08-09T06:15:09.507Z,812.00
2022-08-09T06:17:09.422Z,836.00
2022-08-09T06:19:04.716Z,864.00
2022-08-09T06:21:04.343Z,928.00
2022-08-09T06:23:03.925Z,1132.00
2022-08-09T06:25:04.081Z,2512.00
2022-08-09T06:27:04.202Z,3308.00
2022-08-09T06:29:05.167Z,3520.00
2022-08-09T06:31:04.469Z,3656.00
2022-08-09T06:33:30.614Z,3768.00
2022-08-09T06:35:06.327Z,3880.00
2022-08-09T06:37:04.887Z,3956.00
2022-08-09T06:39:09.268Z,4036.00
2022-08-09T06:41:12.451Z,4080.00
2022-08-09T06:43:07.646Z,4124.00
2022-08-09T06:46:06.903Z,4160.00
2022-08-09T06:47:06.402Z,4204.00
2022-08-09T06:49:05.589Z,4248.00
2022-08-09T06:51:05.644Z,4276.00
2022-08-09T06:53:05.846Z,4292.00
2022-08-09T06:55:10.215Z,4324.00
2022-08-09T06:57:08.265Z,4332.00
2022-08-09T07:00:54.739Z,4332.00
2022-08-09T07:01:08.013Z,4352.00
2022-08-09T07:03:06.423Z,4368.00
2022-08-09T07:05:06.530Z,4392.00
2022-08-09T07:07:06.638Z,4412.00
2022-08-09T07:09:07.724Z,4416.00
2022-08-09T07:11:07.849Z,4424.00
2022-08-09T07:13:28.392Z,4444.00
2022-08-09T07:15:53.968Z,4456.00
2022-08-09T07:17:08.361Z,4456.00
2022-08-09T07:19:07.828Z,4444.00
2022-08-09T07:21:07.643Z,4432.00
2022-08-09T07:23:19.230Z,4440.00
2022-08-09T07:25:09.663Z,4460.00
2022-08-09T07:27:10.839Z,4444.00
2022-08-09T07:29:13.170Z,4432.00
2022-08-09T07:31:08.034Z,4432.00
2022-08-09T07:33:12.237Z,4428.00
2022-08-09T07:35:11.543Z,4416.00
2022-08-09T07:37:15.644Z,4400.00
2022-08-09T07:39:11.589Z,4404.00
2022-08-09T07:41:11.718Z,4388.00
2022-08-09T07:43:16.627Z,4388.00
2022-08-09T07:45:22.604Z,4376.00
2022-08-09T07:47:10.020Z,4376.00
2022-08-09T07:49:09.118Z,4376.00
2022-08-09T07:52:05.713Z,4384.00
2022-08-09T07:53:10.345Z,4388.00
2022-08-09T07:55:11.500Z,4400.00
2022-08-09T07:57:11.796Z,4416.00
2022-08-09T07:59:15.715Z,4444.00
2022-08-09T08:01:11.087Z,4484.00
2022-08-09T08:03:09.939Z,4512.00
2022-08-09T08:05:17.908Z,4552.00
2022-08-09T08:08:06.258Z,4592.00
2022-08-09T08:09:18.826Z,4660.00
2022-08-09T08:12:09.130Z,4732.00
2022-08-09T08:13:11.690Z,4800.00
2022-08-09T08:15:11.794Z,4888.00
2022-08-09T08:17:12.147Z,4960.00
2022-08-09T08:19:11.916Z,5056.00
2022-08-09T08:21:11.033Z,5180.00
2022-08-09T08:23:16.919Z,5324.00
2022-08-09T08:25:13.673Z,5480.00
2022-08-09T08:27:16.589Z,5580.00
2022-08-09T08:29:12.495Z,5648.00
2022-08-09T08:31:14.600Z,5648.00
2022-08-09T08:33:23.218Z,5688.00
2022-08-09T08:35:13.034Z,5692.00
2022-08-09T08:37:15.602Z,5676.00
2022-08-09T08:39:12.998Z,5668.00
2022-08-09T08:41:13.367Z,5664.00
2022-08-09T08:43:13.277Z,5704.00
2022-08-09T08:45:13.818Z,5724.00
2022-08-09T08:47:13.444Z,5756.00
2022-08-09T08:49:12.991Z,5776.00
2022-08-09T08:51:13.897Z,5812.00
2022-08-09T08:53:15.988Z,5824.00
2022-08-09T08:55:15.306Z,5852.00
2022-08-09T08:57:14.206Z,5880.00
2022-08-09T08:59:19.947Z,5892.00
2022-08-09T09:01:20.723Z,5916.00
2022-08-09T09:03:22.595Z,5956.00
2022-08-09T09:05:14.688Z,6008.00
2022-08-09T09:07:13.795Z,6092.00
2022-08-09T09:09:21.006Z,6172.00
2022-08-09T09:11:17.588Z,6228.00
2022-08-09T09:13:15.113Z,6364.00
2022-08-09T09:15:28.545Z,6492.00
2022-08-09T09:17:16.366Z,6632.00
2022-08-09T09:19:40.707Z,6648.00
2022-08-09T09:21:15.671Z,6524.00
2022-08-09T09:23:14.807Z,6516.00
2022-08-09T09:26:02.221Z,6528.00
2022-08-09T09:28:04.331Z,6584.00
2022-08-09T09:29:17.173Z,6692.00
2022-08-09T09:31:17.398Z,6672.00
2022-08-09T09:33:17.906Z,6656.00
2022-08-09T09:35:15.752Z,6660.00
2022-08-09T09:37:15.586Z,6684.00
2022-08-09T09:39:15.732Z,6744.00
2022-08-09T09:41:15.799Z,6784.00
2022-08-09T09:43:15.899Z,6804.00
2022-08-09T09:45:25.781Z,6804.00
2022-08-09T09:47:17.170Z,6776.00
2022-08-09T09:49:16.269Z,6756.00
2022-08-09T09:51:18.687Z,6748.00
2022-08-09T09:53:17.558Z,6772.00
2022-08-09T09:55:32.226Z,6820.00
2022-08-09T09:58:04.183Z,6900.00
2022-08-09T09:59:18.065Z,7036.00
2022-08-09T10:01:31.490Z,7140.00
2022-08-09T10:03:18.241Z,7324.00
2022-08-09T10:05:26.781Z,7472.00
2022-08-09T10:07:18.458Z,7948.00
2022-08-09T10:09:22.402Z,8108.00
2022-08-09T10:11:59.282Z,7968.00
2022-08-09T10:13:23.198Z,7920.00
2022-08-09T10:15:50.928Z,7884.00
2022-08-09T10:17:51.254Z,7836.00
2022-08-09T10:19:19.192Z,7708.00
2022-08-09T10:21:18.298Z,7744.00
2022-08-09T10:23:19.884Z,7696.00
2022-08-09T10:25:20.881Z,7564.00
2022-08-09T10:27:24.977Z,7696.00
2022-08-09T10:29:35.993Z,7808.00
2022-08-09T10:34:04.294Z,8184.00
2022-08-09T10:35:20.122Z,8416.00
2022-08-09T10:37:19.230Z,8432.00
2022-08-09T10:39:19.847Z,8324.00
2022-08-09T10:41:20.417Z,8456.00
2022-08-09T10:43:19.891Z,8232.00
2022-08-09T10:45:19.750Z,8356.00
2022-08-09T10:48:13.411Z,8376.00
2022-08-09T10:49:20.970Z,8208.00
2022-08-09T10:51:20.036Z,8164.00
2022-08-09T10:53:23.064Z,8192.00
2022-08-09T10:55:20.441Z,8376.00
2022-08-09T10:57:20.490Z,8376.00
2022-08-09T10:59:20.750Z,8324.00
2022-08-09T11:03:15.673Z,8540.00
2022-08-09T11:03:50.941Z,8752.00
2022-08-09T11:05:24.801Z,8964.00
2022-08-09T11:07:22.133Z,9188.00
2022-08-09T11:09:21.344Z,9256.00
2022-08-09T11:11:21.344Z,9520.00
2022-08-09T11:13:49.012Z,10180.00
2022-08-09T11:15:23.892Z,10748.00
2022-08-09T11:17:21.721Z,13056.00
2022-08-09T11:19:21.919Z,14656.00
2022-08-09T11:21:23.024Z,14848.00
2022-08-09T11:23:23.799Z,14560.00
2022-08-09T11:25:26.000Z,17824.00
2022-08-09T11:28:02.527Z,19584.00
2022-08-09T11:30:06.504Z,21312.00
2022-08-09T11:31:33.830Z,20288.00
2022-08-09T11:33:24.010Z,19008.00
2022-08-09T11:35:26.720Z,19488.00
2022-08-09T11:37:24.234Z,19296.00
2022-08-09T11:39:23.504Z,17280.00
2022-08-09T11:41:23.543Z,16736.00
2022-08-09T11:43:24.662Z,17568.00
2022-08-09T11:45:37.983Z,17024.00
2022-08-09T11:47:25.135Z,18880.00
2022-08-09T11:49:28.297Z,10196.00
2022-08-09T11:53:00.624Z,2200.00
2022-08-09T11:53:59.066Z,4784.00
2022-08-09T11:55:51.602Z,15712.00
2022-08-09T11:57:46.969Z,17408.00
2022-08-09T11:59:30.170Z,15296.00
2022-08-09T12:01:37.554Z,9796.00
2022-08-09T12:03:55.121Z,11328.00
2022-08-09T12:05:26.286Z,10816.00
2022-08-09T12:07:25.275Z,9528.00
2022-08-09T12:09:25.389Z,8404.00
2022-08-09T12:11:25.492Z,7880.00
2022-08-09T12:14:07.779Z,7672.00
2022-08-09T12:15:49.548Z,7380.00
2022-08-09T12:17:33.984Z,6888.00
2022-08-09T12:19:27.054Z,6628.00
2022-08-09T12:21:28.508Z,6476.00
2022-08-09T12:23:58.696Z,6408.00
2022-08-09T12:25:36.287Z,6380.00
2022-08-09T12:28:58.573Z,6464.00
2022-08-09T12:29:33.363Z,6428.00
2022-08-09T12:31:58.805Z,6216.00
2022-08-09T12:33:50.783Z,4836.00
2022-08-09T12:35:27.917Z,6472.00
2022-08-09T12:37:29.140Z,6376.00
2022-08-09T12:39:27.179Z,6328.00
2022-08-09T12:41:27.301Z,6376.00
2022-08-09T12:44:06.555Z,6396.00
2022-08-09T12:45:33.387Z,6432.00
2022-08-09T12:47:28.775Z,6268.00
2022-08-09T12:49:28.843Z,6056.00
2022-08-09T12:51:30.409Z,5888.00
2022-08-09T12:53:36.739Z,5752.00
2022-08-09T12:56:16.241Z,5552.00
2022-08-09T12:57:29.414Z,5400.00
2022-08-09T12:59:57.507Z,5180.00
2022-08-09T13:01:29.605Z,4856.00
2022-08-09T13:03:54.067Z,4948.00
2022-08-09T13:05:50.710Z,5068.00
2022-08-09T13:07:50.136Z,5024.00
2022-08-09T13:09:30.339Z,5000.00
2022-08-09T13:11:29.223Z,5048.00
2022-08-09T13:14:01.036Z,5124.00
2022-08-09T13:15:30.385Z,5180.00
2022-08-09T13:18:02.819Z,5080.00
2022-08-09T13:20:07.248Z,5020.00
2022-08-09T13:22:38.385Z,5120.00
2022-08-09T13:24:16.935Z,5192.00
2022-08-09T13:25:30.972Z,5232.00
2022-08-09T13:27:30.102Z,5216.00
2022-08-09T13:30:02.599Z,5292.00
2022-08-09T13:32:16.054Z,5248.00
2022-08-09T13:33:53.059Z,5204.00
2022-08-09T13:35:34.683Z,5160.00
2022-08-09T13:37:51.738Z,5204.00
2022-08-09T13:41:45.824Z,5172.00
2022-08-09T13:41:51.234Z,2188.00
2022-08-09T13:43:35.739Z,2020.00
2022-08-09T13:46:42.853Z,1948.00
2022-08-09T13:47:48.933Z,1968.00
2022-08-09T13:49:37.760Z,1796.00
2022-08-09T13:51:32.599Z,1756.00
2022-08-09T13:53:41.463Z,1704.00
2022-08-09T13:55:32.705Z,2520.00
2022-08-09T13:57:35.486Z,1528.00
2022-08-09T13:59:41.737Z,1660.00
2022-08-09T14:01:56.746Z,1528.00
2022-08-09T14:04:01.907Z,1468.00
2022-08-09T14:05:58.390Z,1460.00
2022-08-09T14:07:42.054Z,1580.00
2022-08-09T14:09:34.869Z,2896.00
2022-08-09T14:11:32.711Z,2892.00
2022-08-09T14:14:15.153Z,2860.00
2022-08-09T14:16:10.526Z,2880.00
2022-08-09T14:18:06.470Z,2892.00
2022-08-09T14:19:34.385Z,2900.00
2022-08-09T14:21:33.438Z,2928.00
2022-08-09T14:23:46.864Z,2972.00
2022-08-09T14:25:43.095Z,2988.00
2022-08-09T14:27:56.991Z,1852.00
2022-08-09T14:30:34.051Z,3056.00
2022-08-09T14:31:49.883Z,3200.00
2022-08-09T14:33:38.083Z,3132.00
2022-08-09T14:35:52.137Z,2992.00
2022-08-09T14:37:41.185Z,2812.00
2022-08-09T14:39:45.598Z,2644.00
2022-08-09T14:41:41.642Z,2484.00
2022-08-09T14:43:47.607Z,1308.00
2022-08-09T14:46:55.435Z,1180.00
2022-08-09T14:47:39.950Z,1156.00
2022-08-09T14:49:40.179Z,1152.00
2022-08-09T14:51:42.129Z,1144.00
2022-08-09T14:53:39.745Z,1092.00
2022-08-09T14:55:35.410Z,1088.00
2022-08-09T14:57:43.661Z,1952.00
2022-08-09T14:59:38.634Z,2060.00
2022-08-09T15:01:35.909Z,2068.00
2022-08-09T15:03:36.048Z,2060.00
2022-08-09T15:05:36.461Z,2060.00
2022-08-09T15:07:36.164Z,2020.00
2022-08-09T15:10:04.539Z,1964.00
2022-08-09T15:11:37.489Z,1900.00
2022-08-09T15:13:56.042Z,1856.00
2022-08-09T15:15:38.961Z,1856.00
2022-08-09T15:17:41.490Z,1876.00
2022-08-09T15:19:54.382Z,1896.00
2022-08-09T15:22:00.768Z,1860.00
2022-08-09T15:24:01.647Z,1844.00
2022-08-09T15:25:40.867Z,1840.00
2022-08-09T15:27:47.795Z,1812.00
2022-08-09T15:30:57.215Z,1768.00
2022-08-09T15:31:41.337Z,1712.00
2022-08-09T15:34:17.226Z,1692.00
2022-08-09T15:35:44.114Z,1628.00
2022-08-09T15:37:57.340Z,1592.00
2022-08-09T15:39:50.004Z,1556.00
2022-08-09T15:41:39.307Z,1512.00
2022-08-09T15:43:38.413Z,1516.00
2022-08-09T15:46:08.192Z,1448.00
2022-08-09T15:47:51.610Z,1388.00
2022-08-09T15:49:39.744Z,1364.00
2022-08-09T15:52:03.624Z,1332.00
2022-08-09T15:54:05.384Z,1308.00
2022-08-09T15:55:59.042Z,1304.00
2022-08-09T15:57:44.463Z,1300.00
2022-08-09T15:59:42.874Z,1312.00
2022-08-09T16:01:40.404Z,1304.00
2022-08-09T16:03:41.767Z,1276.00
2022-08-09T16:05:53.152Z,1252.00
2022-08-09T16:07:45.954Z,1240.00
2022-08-09T16:10:04.025Z,1232.00
2022-08-09T16:11:45.552Z,1252.00
2022-08-09T16:14:02.733Z,1288.00
2022-08-09T16:16:11.854Z,1336.00
2022-08-09T16:17:44.363Z,1352.00
2022-08-09T16:19:49.389Z,1328.00
2022-08-09T16:21:41.597Z,1304.00
2022-08-09T16:23:44.423Z,1288.00
2022-08-09T16:25:41.875Z,1248.00
2022-08-09T16:27:42.014Z,1208.00
2022-08-09T16:29:50.045Z,1152.00
2022-08-09T16:32:19.086Z,1100.00
2022-08-09T16:33:42.386Z,1060.00
2022-08-09T16:35:55.717Z,1040.00
2022-08-09T16:37:54.729Z,1032.00
2022-08-09T16:39:54.756Z,952.00
2022-08-09T16:42:03.610Z,800.00
2022-08-09T16:43:43.075Z,820.00
2022-08-09T16:45:44.045Z,672.00
2022-08-09T16:48:40.829Z,636.00
2022-08-09T16:50:30.331Z,612.00
2022-08-09T16:51:43.647Z,600.00
2022-08-09T16:54:09.124Z,596.00
2022-08-09T16:55:59.749Z,584.00
2022-08-09T16:58:09.240Z,572.00
2022-08-09T16:59:57.568Z,556.00
2022-08-09T17:01:51.185Z,552.00
2022-08-09T17:03:44.322Z,548.00
2022-08-09T17:06:08.093Z,548.00
2022-08-09T17:08:46.351Z,552.00
2022-08-09T17:09:47.219Z,552.00
2022-08-09T17:11:43.912Z,552.00
2022-08-09T17:13:45.018Z,552.00
2022-08-09T17:15:59.354Z,556.00
2022-08-09T17:17:50.338Z,576.00
2022-08-09T17:20:04.986Z,636.00
2022-08-09T17:21:46.620Z,596.00
2022-08-09T17:24:27.290Z,572.00
2022-08-09T17:25:45.854Z,576.00
2022-08-09T17:27:49.354Z,576.00
2022-08-09T17:29:46.133Z,560.00
2022-08-09T17:31:48.855Z,540.00
2022-08-09T17:33:45.431Z,524.00
2022-08-09T17:35:47.182Z,500.00
2022-08-09T17:38:02.317Z,472.00
2022-08-09T17:39:52.233Z,444.00
2022-08-09T17:41:46.995Z,428.00
2022-08-09T17:43:50.680Z,420.00
2022-08-09T17:46:04.356Z,404.00
2022-08-09T17:47:49.283Z,396.00
2022-08-09T17:49:50.579Z,388.00
2022-08-09T17:51:47.649Z,372.00
2022-08-09T17:53:51.679Z,364.00
2022-08-09T17:55:48.826Z,352.00
2022-08-09T17:58:03.330Z,344.00
2022-08-09T17:59:48.179Z,336.00
2022-08-09T18:02:07.704Z,328.00
2022-08-09T18:03:48.480Z,324.00
2022-08-09T18:05:53.089Z,320.00
2022-08-09T18:07:48.928Z,312.00
2022-08-09T18:10:04.500Z,304.00
2022-08-09T18:12:10.199Z,300.00
2022-08-09T18:13:57.210Z,296.00
2022-08-09T18:16:05.256Z,288.00
2022-08-09T18:18:02.729Z,280.00
2022-08-09T18:20:55.366Z,272.00
2022-08-09T18:21:50.213Z,256.00
2022-08-09T18:24:10.375Z,244.00
2022-08-09T18:25:53.377Z,232.00
2022-08-09T18:28:05.275Z,220.00
2022-08-09T18:30:40.621Z,208.00
2022-08-09T18:31:55.187Z,196.00
2022-08-09T18:33:53.091Z,184.00
2022-08-09T18:35:58.955Z,172.00
2022-08-09T18:37:54.980Z,160.00
2022-08-09T18:39:50.007Z,144.00
2022-08-09T18:41:52.252Z,128.00
2022-08-09T18:43:53.400Z,116.00
2022-08-09T18:46:49.688Z,104.00
2022-08-09T18:47:51.409Z,96.00
2022-08-09T18:49:50.552Z,84.00
2022-08-09T18:51:55.563Z,76.00
2022-08-09T18:53:59.780Z,68.00
2022-08-09T18:55:56.374Z,60.00
2022-08-09T18:57:52.125Z,52.00
2022-08-09T18:59:58.859Z,40.00
2022-08-09T19:01:52.462Z,36.00
2022-08-09T19:04:01.458Z,28.00
2022-08-09T19:06:04.169Z,24.00
2022-08-09T19:08:04.515Z,16.00
2022-08-09T19:10:14.460Z,12.00
2022-08-09T19:11:53.038Z,8.00
2022-08-09T19:13:52.151Z,8.00
2022-08-09T19:15:52.246Z,4.00
2022-08-09T19:17:56.639Z,8.00
2022-08-09T19:20:00.654Z,4.00
2022-08-09T19:22:04.901Z,4.00
2022-08-09T19:24:33.280Z,4.00
2022-08-09T19:26:02.114Z,0.00
2022-08-09T19:27:53.835Z,0.00
2022-08-09T19:30:23.219Z,0.00
2022-08-09T19:31:54.124Z,0.00
2022-08-09T19:33:54.289Z,0.00
2022-08-09T19:35:56.899Z,0.00
2022-08-09T19:37:57.489Z,0.00
2022-08-09T19:40:04.796Z,0.00
2022-08-09T19:41:54.758Z,0.00
2022-08-09T19:44:00.572Z,0.00
2022-08-09T19:45:57.857Z,0.00
2022-08-09T19:47:54.092Z,0.00
2022-08-09T19:50:05.369Z,0.00
2022-08-09T19:51:56.170Z,0.00
2022-08-09T19:53:54.826Z,0.00
2022-08-09T19:56:05.898Z,0.00
2022-08-09T19:57:55.722Z,0.00
2022-08-09T20:00:05.787Z,0.00
2022-08-09T20:02:05.116Z,0.00
2022-08-09T20:04:18.308Z,0.00
2022-08-09T20:05:56.285Z,0.00
2022-08-09T20:08:00.140Z,0.00
2022-08-09T20:09:56.388Z,0.00
2022-08-09T20:11:55.622Z,0.00
2022-08-09T20:13:56.642Z,0.00
2022-08-09T20:16:37.608Z,0.00
2022-08-09T20:17:56.971Z,0.00
2022-08-09T20:19:58.488Z,0.00
2022-08-09T20:21:59.855Z,0.00
2022-08-09T20:23:56.521Z,0.00
2022-08-09T20:25:56.346Z,0.00
2022-08-09T20:27:56.501Z,0.00
2022-08-09T20:29:56.551Z,0.00
2022-08-09T20:32:30.922Z,0.00
2022-08-09T20:33:58.505Z,0.00
2022-08-09T20:35:56.818Z,0.00
2022-08-09T20:38:19.748Z,0.00
2022-08-09T20:40:17.741Z,0.00
2022-08-09T20:41:58.124Z,0.00
2022-08-09T20:43:58.526Z,0.00
2022-08-09T20:46:01.813Z,0.00
2022-08-09T20:47:58.535Z,0.00
2022-08-09T20:49:57.640Z,0.00
2022-08-09T20:51:57.716Z,0.00
2022-08-09T20:53:57.895Z,0.00
2022-08-09T20:56:02.293Z,0.00
2022-08-09T20:58:08.499Z,0.00
2022-08-09T21:00:20.475Z,0.00
2022-08-09T21:01:59.505Z,0.00
2022-08-09T21:05:48.942Z,0.00
2022-08-09T21:06:00.180Z,0.00
2022-08-09T21:08:01.580Z,0.00
2022-08-09T21:09:58.977Z,0.00
2022-08-09T21:14:00.547Z,0.00
2022-08-09T21:16:00.061Z,0.00
2022-08-09T21:18:23.635Z,0.00
2022-08-09T21:20:19.480Z,0.00
2022-08-09T21:22:00.547Z,0.00
2022-08-09T21:24:02.144Z,0.00
2022-08-09T21:26:00.283Z,0.00
2022-08-09T21:27:59.843Z,0.00
2022-08-09T21:29:59.971Z,0.00
2022-08-09T21:32:00.197Z,0.00
2022-08-09T21:34:00.167Z,0.00
2022-08-09T21:36:01.331Z,0.00
2022-08-09T21:38:00.824Z,0.00
2022-08-09T21:40:00.709Z,0.00
2022-08-09T21:42:06.705Z,0.00
2022-08-09T21:44:01.745Z,0.00
2022-08-09T21:46:00.834Z,0.00
2022-08-09T21:48:00.967Z,0.00
2022-08-09T21:50:01.137Z,0.00
2022-08-09T21:52:01.153Z,0.00
2022-08-09T21:54:01.357Z,0.00
2022-08-09T21:56:01.358Z,0.00
2022-08-09T21:58:01.956Z,0.00
2022-08-09T22:00:01.842Z,0.00
2022-08-09T22:02:01.941Z,0.00
2022-08-09T22:04:01.862Z,0.00
2022-08-09T22:06:01.971Z,0.00
2022-08-09T22:08:02.198Z,0.00
2022-08-09T22:10:02.386Z,0.00
2022-08-09T22:12:18.165Z,0.00
2022-08-09T22:14:03.402Z,0.00
2022-08-09T22:16:03.521Z,0.00
2022-08-09T22:18:02.647Z,0.00
2022-08-09T22:20:02.692Z,0.00
2022-08-09T22:22:02.826Z,0.00
2022-08-09T22:24:02.939Z,0.00
2022-08-09T22:26:05.867Z,0.00
2022-08-09T22:28:06.694Z,0.00
2022-08-09T22:30:03.202Z,0.00
2022-08-09T22:32:03.320Z,0.00
2022-08-09T22:34:03.449Z,0.00
2022-08-09T22:36:04.518Z,0.00
2022-08-09T22:38:07.644Z,0.00
2022-08-09T22:40:03.886Z,0.00
2022-08-09T22:42:06.086Z,0.00
2022-08-09T22:44:05.010Z,0.00
2022-08-09T22:48:16.515Z,0.00
2022-08-09T22:48:19.896Z,0.00
2022-08-09T22:50:05.356Z,0.00
2022-08-09T22:52:04.465Z,0.00
2022-08-09T22:54:04.550Z,0.00
2022-08-09T22:56:31.534Z,0.00
2022-08-09T22:58:05.867Z,0.00
2022-08-09T23:00:04.986Z,0.00
2022-08-09T23:02:05.112Z,0.00
2022-08-09T23:04:07.090Z,0.00
2022-08-09T23:06:05.399Z,0.00
2022-08-09T23:08:21.884Z,0.00
2022-08-09T23:10:06.728Z,0.00
2022-08-09T23:12:05.813Z,0.00
2022-08-09T23:14:10.069Z,0.00
2022-08-09T23:16:06.896Z,0.00
2022-08-09T23:18:05.987Z,0.00
2022-08-09T23:20:08.256Z,0.00
2022-08-09T23:22:06.254Z,0.00
2022-08-09T23:24:07.351Z,0.00
2022-08-09T23:26:06.478Z,0.00
2022-08-09T23:28:15.083Z,0.00
2022-08-09T23:30:07.669Z,0.00
2022-08-09T23:32:06.873Z,0.00
2022-08-09T23:34:07.007Z,0.00
2022-08-09T23:36:07.638Z,0.00
2022-08-09T23:38:07.324Z,0.00
2022-08-09T23:40:07.406Z,0.00
2022-08-09T23:42:07.678Z,0.00
2022-08-09T23:44:07.596Z,0.00
2022-08-09T23:46:07.706Z,0.00
2022-08-09T23:48:09.048Z,0.00
2022-08-09T23:50:07.970Z,0.00
2022-08-09T23:52:08.087Z,0.00
2022-08-09T23:54:08.162Z,0.00
2022-08-09T23:56:08.266Z,0.00
2022-08-09T23:58:24.238Z,0.00
